Time;durP1;ratioP1;P1;durP2;ratioP2;P2;SDS_P1;SDS_P2;PMS_P1;PMS_P2;Temp;Humidity;BMP_temperature;BMP_pressure;BME280_temperature;BME280_humidity;BME280_pressure;Samples;Min_cycle;Max_cycle;Signal;HPM_P1;HPM_P2
2023/02/16 00:00:45;;;;;;;24.20;9.35;;;-1.10;99.90;;;;;;5006617;28;20651;-77
2023/02/16 00:03:20;;;;;;;21.67;8.45;;;-1.10;99.90;;;;;;5006125;28;20030;-77
2023/02/16 00:05:47;;;;;;;19.92;9.45;;;-0.90;99.90;;;;;;4992532;28;20076;-77
2023/02/16 00:08:13;;;;;;;17.17;8.90;;;-0.90;99.90;;;;;;4990944;28;20033;-77
2023/02/16 00:10:39;;;;;;;20.35;10.15;;;-1.10;99.90;;;;;;5006489;28;20095;-77
2023/02/16 00:13:48;;;;;;;17.95;11.32;;;-1.10;99.90;;;;;;4989019;28;20026;-77
2023/02/16 00:16:20;;;;;;;17.58;8.70;;;-1.10;99.90;;;;;;4976695;28;20101;-77
2023/02/16 00:18:47;;;;;;;14.70;7.10;;;-1.10;99.90;;;;;;4981894;28;20038;-77
2023/02/16 00:21:14;;;;;;;30.92;12.05;;;-1.00;99.90;;;;;;4999705;28;20031;-77
2023/02/16 00:23:41;;;;;;;20.23;10.25;;;-0.90;99.90;;;;;;4982756;28;20448;-77
2023/02/16 00:26:21;;;;;;;23.60;9.43;;;-0.80;99.90;;;;;;4985071;28;20034;-77
2023/02/16 00:28:53;;;;;;;27.88;10.27;;;-0.80;99.90;;;;;;5010532;28;20103;-78
2023/02/16 00:31:27;;;;;;;25.25;11.70;;;-0.70;99.90;;;;;;4982098;28;20061;-77
2023/02/16 00:33:53;;;;;;;22.27;11.48;;;-0.70;99.90;;;;;;5001352;28;20025;-77
2023/02/16 00:36:20;;;;;;;50.15;15.07;;;-0.70;99.90;;;;;;5003272;28;20026;-77
2023/02/16 00:38:46;;;;;;;35.25;11.40;;;-0.70;99.90;;;;;;5003589;28;20026;-77
2023/02/16 00:44:11;;;;;;;13.98;8.98;;;-0.60;99.90;;;;;;4997174;28;20056;-77
2023/02/16 00:46:37;;;;;;;21.33;9.80;;;-0.60;99.90;;;;;;4973684;28;20034;-77
2023/02/16 00:49:03;;;;;;;21.30;10.13;;;-0.70;99.90;;;;;;4991233;28;20375;-77
2023/02/16 00:51:29;;;;;;;30.17;12.20;;;-0.60;99.90;;;;;;5003100;28;20061;-77
2023/02/16 00:53:54;;;;;;;23.02;9.93;;;-0.60;99.90;;;;;;5005423;28;20077;-78
2023/02/16 00:56:21;;;;;;;24.83;9.60;;;-0.60;99.90;;;;;;4988815;28;20021;-77
2023/02/16 00:58:51;;;;;;;21.02;9.73;;;-0.70;99.90;;;;;;4996288;28;20026;-77
2023/02/16 01:01:19;;;;;;;26.02;12.07;;;-0.60;99.90;;;;;;4973669;28;20041;-78
2023/02/16 01:03:45;;;;;;;29.30;12.45;;;-0.60;99.90;;;;;;5013636;28;20029;-77
2023/02/16 01:11:57;;;;;;;22.38;8.30;;;-0.70;99.90;;;;;;4993346;28;20045;-77
2023/02/16 01:14:24;;;;;;;31.25;11.55;;;-0.70;99.90;;;;;;4971051;28;20105;-78
2023/02/16 01:16:49;;;;;;;26.98;11.38;;;-0.60;99.90;;;;;;5009368;28;20036;-77
2023/02/16 01:19:15;;;;;;;11.10;6.13;;;-0.60;99.90;;;;;;5004175;28;20452;-77
2023/02/16 01:21:41;;;;;;;25.30;9.05;;;-0.60;99.90;;;;;;5002531;28;20034;-77
2023/02/16 01:24:07;;;;;;;23.45;10.43;;;-0.50;99.90;;;;;;5006874;28;20129;-78
2023/02/16 01:26:43;;;;;;;17.77;11.77;;;-0.60;99.90;;;;;;4987897;28;20144;-78
2023/02/16 01:29:20;;;;;;;23.30;7.75;;;-0.60;99.90;;;;;;5013107;28;20030;-78
2023/02/16 01:31:46;;;;;;;26.98;10.18;;;-0.60;99.90;;;;;;5005709;28;20030;-78
2023/02/16 01:34:13;;;;;;;15.43;9.45;;;-0.60;99.90;;;;;;5013221;28;20033;-78
2023/02/16 01:36:43;;;;;;;21.52;10.85;;;-0.40;99.90;;;;;;4987603;28;20064;-78
2023/02/16 01:39:16;;;;;;;23.52;10.63;;;-0.40;99.90;;;;;;4989937;28;20030;-78
2023/02/16 01:42:26;;;;;;;18.83;8.60;;;-0.40;99.90;;;;;;4987940;28;20034;-78
2023/02/16 01:45:02;;;;;;;18.48;9.52;;;-0.50;99.90;;;;;;4977397;28;20531;-78
2023/02/16 01:47:57;;;;;;;15.57;7.82;;;-0.60;99.90;;;;;;4996371;28;20601;-77
2023/02/16 01:50:45;;;;;;;18.58;9.13;;;-0.60;99.90;;;;;;4988670;28;20494;-78
2023/02/16 01:53:42;;;;;;;18.02;8.57;;;-0.60;99.90;;;;;;4983047;28;20025;-78
2023/02/16 01:56:35;;;;;;;12.07;6.97;;;-0.50;99.90;;;;;;5004592;28;20038;-78
2023/02/16 01:59:31;;;;;;;19.58;7.95;;;-0.50;99.90;;;;;;4971254;28;20042;-78
2023/02/16 02:02:03;;;;;;;12.80;9.23;;;-0.60;99.90;;;;;;4993694;28;20125;-78
2023/02/16 02:07:58;;;;;;;27.67;11.40;;;-0.70;99.90;;;;;;5003297;28;20033;-78
2023/02/16 02:10:52;;;;;;;18.27;8.48;;;-0.70;99.90;;;;;;5005872;28;20034;-78
2023/02/16 02:13:44;;;;;;;18.40;12.05;;;-0.60;99.90;;;;;;4998668;28;20065;-79
2023/02/16 02:16:11;;;;;;;12.82;6.40;;;-0.70;99.90;;;;;;4999707;28;20058;-78
2023/02/16 02:18:37;;;;;;;21.13;6.53;;;-0.70;99.90;;;;;;5000991;28;20076;-78
2023/02/16 02:25:09;;;;;;;16.85;8.52;;;-0.80;99.90;;;;;;5001022;28;20038;-78
2023/02/16 02:27:43;;;;;;;15.18;7.28;;;-1.00;99.90;;;;;;4994808;28;20125;-78
2023/02/16 02:30:30;;;;;;;13.93;7.10;;;-0.90;99.90;;;;;;4982412;28;20030;-78
2023/02/16 02:33:17;;;;;;;18.38;7.57;;;-1.00;99.90;;;;;;4995701;28;20437;-77
2023/02/16 02:36:02;;;;;;;15.40;9.20;;;-0.90;99.90;;;;;;5004337;28;20113;-77
2023/02/16 02:38:55;;;;;;;15.40;5.90;;;-0.90;99.90;;;;;;4995680;28;20017;-77
2023/02/16 02:42:02;;;;;;;15.25;6.53;;;-0.90;99.90;;;;;;4974674;28;20485;-77
2023/02/16 02:44:16;;;;;;;8.73;6.47;;;-1.00;99.90;;;;;;5011709;28;20041;-78
2023/02/16 02:46:42;;;;;;;19.13;9.18;;;-1.00;99.90;;;;;;4986969;28;20045;-77
2023/02/16 02:49:08;;;;;;;16.08;8.93;;;-0.90;99.90;;;;;;4994022;28;20053;-78
2023/02/16 02:51:39;;;;;;;17.52;9.27;;;-0.90;99.90;;;;;;5002847;28;20528;-77
2023/02/16 03:03:11;;;;;;;18.15;7.85;;;-0.90;99.90;;;;;;4980835;28;20374;-78
2023/02/16 03:05:41;;;;;;;8.98;6.32;;;-0.90;99.90;;;;;;5002381;28;20033;-77
2023/02/16 03:08:14;;;;;;;14.27;7.10;;;-1.00;99.90;;;;;;4993596;28;20038;-77
2023/02/16 03:13:57;;;;;;;13.50;8.35;;;-1.10;99.90;;;;;;4998032;28;20084;-78
2023/02/16 03:16:30;;;;;;;17.30;6.50;;;-1.20;99.90;;;;;;5002536;28;20029;-77
2023/02/16 03:30:09;;;;;;;11.43;6.55;;;-1.10;99.90;;;;;;5005742;28;20478;-78
2023/02/16 03:32:36;;;;;;;13.95;7.28;;;-1.10;99.90;;;;;;4991974;28;20061;-79
2023/02/16 03:35:03;;;;;;;13.30;7.47;;;-1.10;99.90;;;;;;4988577;28;20026;-78
2023/02/16 03:37:29;;;;;;;12.82;5.95;;;-1.10;99.90;;;;;;4991361;28;20557;-77
2023/02/16 03:42:39;;;;;;;11.65;5.93;;;-1.00;99.90;;;;;;4994320;28;20069;-78
2023/02/16 03:45:06;;;;;;;10.10;6.53;;;-1.00;99.90;;;;;;5005597;28;20485;-78
2023/02/16 03:47:31;;;;;;;15.55;5.68;;;-1.00;99.90;;;;;;5009138;28;20041;-78
2023/02/16 03:49:57;;;;;;;14.15;7.13;;;-1.00;99.90;;;;;;4989872;28;20037;-79
2023/02/16 03:52:23;;;;;;;37.20;9.50;;;-1.00;99.90;;;;;;5007932;28;20034;-79
2023/02/16 03:54:49;;;;;;;12.07;5.38;;;-1.00;99.90;;;;;;5006781;28;20026;-79
2023/02/16 03:57:15;;;;;;;11.65;9.13;;;-1.00;99.90;;;;;;5006823;28;20401;-79
2023/02/16 03:59:41;;;;;;;17.75;6.65;;;-1.00;99.90;;;;;;5007533;28;20029;-78
2023/02/16 04:02:07;;;;;;;17.60;8.55;;;-0.90;99.90;;;;;;5003695;28;20033;-78
2023/02/16 04:04:32;;;;;;;10.02;6.45;;;-0.90;99.90;;;;;;5004314;28;20041;-77
2023/02/16 04:06:58;;;;;;;30.63;7.90;;;-1.00;99.90;;;;;;4998075;28;20370;-77
2023/02/16 04:09:24;;;;;;;19.20;6.05;;;-1.00;99.90;;;;;;5000903;28;20033;-77
2023/02/16 04:14:34;;;;;;;13.18;7.70;;;-0.90;99.90;;;;;;4988552;28;20045;-77
2023/02/16 04:17:00;;;;;;;13.50;7.90;;;-0.90;99.90;;;;;;4997815;28;20111;-77
2023/02/16 04:19:26;;;;;;;13.65;6.28;;;-0.90;99.90;;;;;;5001170;28;20026;-77
2023/02/16 04:21:51;;;;;;;18.88;6.85;;;-0.90;99.90;;;;;;4999131;28;20062;-77
2023/02/16 04:26:45;;;;;;;10.95;5.38;;;-0.80;99.90;;;;;;5042315;28;20077;-70
2023/02/16 04:29:11;;;;;;;12.48;8.23;;;-0.80;99.90;;;;;;5050113;28;20106;-71
2023/02/16 04:31:37;;;;;;;18.60;6.65;;;-0.80;99.90;;;;;;5039677;28;20033;-71
2023/02/16 04:34:02;;;;;;;22.05;7.20;;;-0.80;99.90;;;;;;5049807;28;20041;-70
2023/02/16 04:36:28;;;;;;;12.23;6.38;;;-0.80;99.90;;;;;;5054042;28;20026;-71
2023/02/16 04:38:54;;;;;;;9.38;6.80;;;-0.80;99.90;;;;;;5049811;28;20029;-71
2023/02/16 04:41:19;;;;;;;14.25;6.65;;;-0.80;99.90;;;;;;5057073;28;20078;-70
2023/02/16 04:43:45;;;;;;;12.70;7.15;;;-0.80;99.90;;;;;;5033746;28;20048;-70
2023/02/16 04:46:11;;;;;;;12.35;7.10;;;-0.80;99.90;;;;;;5053108;28;20029;-71
2023/02/16 04:48:38;;;;;;;12.48;6.40;;;-0.70;99.90;;;;;;5054141;28;20036;-72
2023/02/16 04:51:04;;;;;;;12.40;7.60;;;-0.70;99.90;;;;;;5035896;28;20064;-69
2023/02/16 04:53:29;;;;;;;14.30;7.07;;;-0.70;99.90;;;;;;5034206;28;20025;-70
2023/02/16 04:55:55;;;;;;;16.20;6.75;;;-0.70;99.90;;;;;;5053949;28;20028;-70
2023/02/16 04:58:21;;;;;;;11.57;8.13;;;-0.70;99.90;;;;;;5062312;28;20031;-70
2023/02/16 05:00:47;;;;;;;13.65;6.30;;;-0.70;99.90;;;;;;5039451;28;20063;-71
2023/02/16 05:03:12;;;;;;;9.80;5.57;;;-0.70;99.90;;;;;;5009988;28;20041;-70
2023/02/16 05:05:39;;;;;;;14.95;7.97;;;-0.70;99.90;;;;;;5031053;28;20029;-70
2023/02/16 05:08:05;;;;;;;10.48;5.00;;;-0.60;99.90;;;;;;5043626;28;20076;-70
2023/02/16 05:10:30;;;;;;;13.55;7.85;;;-0.60;99.90;;;;;;5024254;28;20025;-70
2023/02/16 05:15:41;;;;;;;24.02;10.18;;;-0.60;99.90;;;;;;5050780;28;20028;-71
2023/02/16 05:18:06;;;;;;;17.75;6.45;;;-0.60;99.90;;;;;;5063829;28;20089;-71
2023/02/16 05:23:16;;;;;;;14.80;8.20;;;-0.60;99.90;;;;;;5044963;28;20025;-71
2023/02/16 05:25:42;;;;;;;14.60;7.57;;;-0.60;99.90;;;;;;5037201;28;20063;-71
2023/02/16 05:28:08;;;;;;;10.70;6.25;;;-0.60;99.90;;;;;;5041432;28;20039;-71
2023/02/16 05:30:34;;;;;;;13.50;7.43;;;-0.60;99.90;;;;;;5028065;28;20037;-71
2023/02/16 05:32:59;;;;;;;15.30;6.68;;;-0.50;99.90;;;;;;5033132;28;20113;-70
2023/02/16 05:35:25;;;;;;;20.75;7.32;;;-0.40;99.90;;;;;;5042070;28;20025;-72
2023/02/16 05:37:51;;;;;;;16.05;8.27;;;-0.40;99.90;;;;;;5035290;28;20071;-71
2023/02/16 05:40:17;;;;;;;10.70;7.65;;;-0.40;99.90;;;;;;5059355;28;20099;-71
2023/02/16 05:42:43;;;;;;;20.02;8.95;;;-0.50;99.90;;;;;;5047029;28;20033;-70
2023/02/16 05:45:09;;;;;;;19.23;9.45;;;-0.50;99.90;;;;;;5054396;28;20039;-72
2023/02/16 05:47:34;;;;;;;17.52;8.82;;;-0.50;99.90;;;;;;5065138;28;20031;-71
2023/02/16 05:50:00;;;;;;;8.65;6.53;;;-0.50;99.90;;;;;;5057632;28;20062;-72
2023/02/16 05:52:26;;;;;;;23.33;8.13;;;-0.50;99.90;;;;;;5064112;28;20082;-71
2023/02/16 05:54:51;;;;;;;14.48;8.98;;;-0.50;99.90;;;;;;5070842;28;20025;-70
2023/02/16 05:57:17;;;;;;;15.85;7.65;;;-0.50;99.90;;;;;;5064047;28;20440;-70
2023/02/16 05:59:43;;;;;;;20.20;8.98;;;-0.40;99.90;;;;;;5070300;28;20029;-70
2023/02/16 06:02:09;;;;;;;11.68;8.68;;;-0.40;99.90;;;;;;5064066;28;20081;-69
2023/02/16 06:04:35;;;;;;;15.20;7.15;;;-0.40;99.90;;;;;;5070213;28;20429;-72
2023/02/16 06:07:01;;;;;;;14.15;6.82;;;-0.40;99.90;;;;;;5066142;28;20083;-70
2023/02/16 06:09:27;;;;;;;16.30;9.25;;;-0.40;99.90;;;;;;5051679;28;20032;-69
2023/02/16 06:11:52;;;;;;;17.55;8.50;;;-0.40;99.90;;;;;;5044255;28;20034;-69
2023/02/16 06:14:20;;;;;;;14.30;7.45;;;-0.40;99.90;;;;;;5030677;28;20432;-69
2023/02/16 06:16:48;;;;;;;16.58;8.38;;;-0.40;99.90;;;;;;5044888;28;20016;-69
2023/02/16 06:19:17;;;;;;;23.05;9.65;;;-0.40;99.90;;;;;;5059368;28;20057;-69
2023/02/16 06:21:43;;;;;;;10.50;8.60;;;-0.40;99.90;;;;;;5062558;28;20088;-70
2023/02/16 06:24:12;;;;;;;12.02;7.18;;;-0.40;99.90;;;;;;5059056;28;20086;-68
2023/02/16 06:26:38;;;;;;;21.67;10.13;;;-0.40;99.90;;;;;;5060362;28;20041;-67
2023/02/16 06:29:05;;;;;;;19.52;8.60;;;-0.40;99.90;;;;;;5053126;28;20058;-68
2023/02/16 06:31:31;;;;;;;13.85;8.48;;;-0.30;99.90;;;;;;5058799;28;20033;-69
2023/02/16 06:33:57;;;;;;;16.73;8.32;;;-0.40;99.90;;;;;;5072105;28;20496;-69
2023/02/16 06:36:23;;;;;;;9.32;5.88;;;-0.30;99.90;;;;;;5048360;28;20032;-69
2023/02/16 06:38:50;;;;;;;17.23;7.50;;;-0.30;99.90;;;;;;5032323;28;20113;-68
2023/02/16 06:41:33;;;;;;;12.15;7.18;;;-0.40;99.90;;;;;;5044271;28;20501;-68
2023/02/16 06:44:11;;;;;;;16.38;9.90;;;-0.40;99.90;;;;;;5042966;28;20033;-68
2023/02/16 06:46:37;;;;;;;13.60;7.03;;;-0.40;99.90;;;;;;5032259;28;20061;-68
2023/02/16 06:49:03;;;;;;;20.02;10.27;;;-0.40;99.90;;;;;;5050933;28;20032;-68
2023/02/16 06:51:29;;;;;;;23.65;9.07;;;-0.40;99.90;;;;;;5036533;28;20040;-68
2023/02/16 06:53:55;;;;;;;21.30;9.77;;;-0.30;99.90;;;;;;5051615;28;20029;-67
2023/02/16 06:56:21;;;;;;;13.18;6.75;;;-0.30;99.90;;;;;;5056796;28;20545;-69
2023/02/16 06:58:46;;;;;;;16.65;7.55;;;-0.30;99.90;;;;;;5063006;28;20046;-68
2023/02/16 07:01:12;;;;;;;28.02;7.57;;;-0.20;99.90;;;;;;5061267;28;20079;-66
2023/02/16 07:03:38;;;;;;;15.15;9.32;;;-0.20;99.90;;;;;;5046037;28;20037;-67
2023/02/16 07:06:05;;;;;;;23.25;9.00;;;-0.20;99.90;;;;;;5026280;28;20044;-67
2023/02/16 07:08:31;;;;;;;17.85;8.18;;;-0.20;99.90;;;;;;5013665;28;20060;-67
2023/02/16 07:10:56;;;;;;;21.02;8.85;;;-0.20;99.90;;;;;;5040588;28;20511;-67
2023/02/16 07:13:22;;;;;;;15.18;8.20;;;-0.20;99.90;;;;;;5062706;28;20392;-67
2023/02/16 07:15:48;;;;;;;19.73;9.25;;;-0.20;99.90;;;;;;5053727;28;20091;-67
2023/02/16 07:18:13;;;;;;;20.17;8.70;;;-0.10;99.90;;;;;;5046940;28;20113;-67
2023/02/16 07:20:39;;;;;;;21.17;9.25;;;-0.10;99.90;;;;;;5039360;28;20499;-67
2023/02/16 07:23:05;;;;;;;22.85;11.02;;;-0.10;99.90;;;;;;5027214;28;20025;-67
2023/02/16 07:25:31;;;;;;;15.45;7.18;;;-0.10;99.90;;;;;;5051033;28;20551;-67
2023/02/16 07:27:57;;;;;;;15.93;8.32;;;-0.10;99.90;;;;;;5037851;28;20033;-68
2023/02/16 07:30:22;;;;;;;21.60;9.75;;;-0.10;99.90;;;;;;5034111;28;20087;-68
2023/02/16 07:32:48;;;;;;;19.60;8.80;;;0.00;99.90;;;;;;5037469;28;20031;-68
2023/02/16 07:35:14;;;;;;;14.73;6.88;;;0.00;99.90;;;;;;5037598;28;20039;-68
2023/02/16 07:37:39;;;;;;;34.45;13.52;;;0.00;99.90;;;;;;5030652;28;20064;-68
2023/02/16 07:40:06;;;;;;;21.25;11.38;;;0.00;99.90;;;;;;5054492;28;20392;-68
2023/02/16 07:42:32;;;;;;;20.58;9.43;;;0.00;99.90;;;;;;5061897;28;20048;-68
2023/02/16 07:44:58;;;;;;;24.58;9.57;;;0.10;99.90;;;;;;5038718;28;20029;-67
2023/02/16 07:47:24;;;;;;;25.52;9.70;;;0.00;99.90;;;;;;5007299;28;20378;-67
2023/02/16 07:49:50;;;;;;;18.75;10.15;;;0.00;99.90;;;;;;5021035;28;20040;-67
2023/02/16 07:52:16;;;;;;;16.95;7.28;;;0.00;99.90;;;;;;5052803;28;20029;-69
2023/02/16 07:54:42;;;;;;;11.23;6.93;;;0.00;99.90;;;;;;5055739;28;20495;-68
2023/02/16 07:57:08;;;;;;;17.00;8.73;;;0.00;99.90;;;;;;5064446;28;20060;-68
2023/02/16 07:59:34;;;;;;;15.55;8.73;;;0.00;99.90;;;;;;5065315;28;20028;-68
2023/02/16 08:02:00;;;;;;;20.45;9.15;;;0.00;99.90;;;;;;5045854;28;20487;-67
2023/02/16 08:04:26;;;;;;;18.98;8.63;;;0.00;99.90;;;;;;5040819;28;20461;-68
2023/02/16 08:06:51;;;;;;;24.38;7.45;;;0.00;99.90;;;;;;5028026;28;20036;-68
2023/02/16 08:09:17;;;;;;;21.27;8.65;;;0.10;99.90;;;;;;5045372;28;20055;-69
2023/02/16 08:11:43;;;;;;;28.25;11.48;;;0.10;99.90;;;;;;5048863;28;20033;-69
2023/02/16 08:14:09;;;;;;;19.20;7.78;;;0.10;99.90;;;;;;5042537;28;20025;-69
2023/02/16 08:16:37;;;;;;;18.25;9.15;;;0.20;99.90;;;;;;5027245;28;20096;-70
2023/02/16 08:19:03;;;;;;;45.40;11.25;;;0.20;99.90;;;;;;5031946;28;20057;-68
2023/02/16 08:21:33;;;;;;;21.20;11.55;;;0.20;99.90;;;;;;5026395;28;20040;-67
2023/02/16 08:24:02;;;;;;;36.67;12.90;;;0.20;99.90;;;;;;5024075;28;20040;-68
2023/02/16 08:26:35;;;;;;;26.13;12.52;;;0.20;99.90;;;;;;5043938;28;20484;-69
2023/02/16 08:29:02;;;;;;;25.48;11.68;;;0.30;99.90;;;;;;5042958;28;20063;-69
2023/02/16 08:31:30;;;;;;;29.90;12.95;;;0.30;99.90;;;;;;5036855;28;20033;-68
2023/02/16 08:33:59;;;;;;;37.65;11.75;;;0.40;99.90;;;;;;5039275;28;20377;-69
2023/02/16 08:36:31;;;;;;;15.93;11.75;;;0.50;99.90;;;;;;5036759;28;20059;-73
2023/02/16 08:38:59;;;;;;;25.38;10.40;;;0.60;99.90;;;;;;5043162;28;20021;-73
2023/02/16 08:41:31;;;;;;;25.80;11.38;;;0.60;99.90;;;;;;5046375;28;20826;-75
2023/02/16 08:43:59;;;;;;;20.65;7.82;;;0.60;99.90;;;;;;5063226;28;20025;-71
2023/02/16 08:46:29;;;;;;;32.30;11.63;;;0.60;99.90;;;;;;5047677;28;20035;-71
2023/02/16 08:48:58;;;;;;;32.22;13.63;;;0.50;99.90;;;;;;5037647;28;20033;-72
2023/02/16 08:51:29;;;;;;;24.50;13.20;;;0.40;99.90;;;;;;5034013;28;20051;-72
2023/02/16 08:53:58;;;;;;;23.63;10.13;;;0.60;99.90;;;;;;5028623;28;20021;-72
2023/02/16 08:56:25;;;;;;;22.92;9.82;;;0.60;99.90;;;;;;5061790;28;20399;-71
2023/02/16 08:58:51;;;;;;;27.40;10.73;;;0.60;99.90;;;;;;5061857;28;20368;-63
2023/02/16 09:01:17;;;;;;;27.27;10.05;;;0.70;99.90;;;;;;5062197;28;20126;-64
2023/02/16 09:03:45;;;;;;;26.25;12.50;;;0.80;99.90;;;;;;5024340;28;20155;-64
2023/02/16 09:06:14;;;;;;;25.63;11.98;;;0.80;99.90;;;;;;5045058;28;20093;-64
2023/02/16 09:08:40;;;;;;;20.30;11.32;;;0.80;99.90;;;;;;5047577;28;20490;-64
2023/02/16 09:11:11;;;;;;;29.92;14.52;;;0.80;99.90;;;;;;5056264;28;20395;-63
2023/02/16 09:13:40;;;;;;;16.65;9.68;;;0.80;99.90;;;;;;5047585;28;20508;-63
2023/02/16 09:16:15;;;;;;;20.92;10.80;;;0.70;99.90;;;;;;5038487;28;20041;-63
2023/02/16 09:18:43;;;;;;;38.00;13.98;;;0.80;99.90;;;;;;5042229;28;20033;-64
2023/02/16 09:21:16;;;;;;;26.38;13.05;;;0.90;99.90;;;;;;5060026;28;20429;-64
2023/02/16 09:23:48;;;;;;;37.88;12.93;;;1.00;99.90;;;;;;5064981;28;20503;-64
2023/02/16 09:26:19;;;;;;;24.15;10.45;;;1.20;99.90;;;;;;5058850;28;20033;-64
2023/02/16 09:28:46;;;;;;;44.63;14.55;;;1.20;99.90;;;;;;5046603;28;20028;-63
2023/02/16 09:31:27;;;;;;;35.85;13.70;;;1.40;99.90;;;;;;5047996;28;20033;-64
2023/02/16 09:34:03;;;;;;;24.65;13.65;;;1.60;99.90;;;;;;5037608;28;20036;-64
2023/02/16 09:36:30;;;;;;;18.48;11.98;;;1.50;99.90;;;;;;5045304;28;20536;-64
2023/02/16 09:38:57;;;;;;;24.42;12.70;;;1.40;99.90;;;;;;5046979;28;20100;-64
2023/02/16 09:41:38;;;;;;;32.40;12.20;;;1.40;99.90;;;;;;5042674;28;20029;-64
2023/02/16 09:44:36;;;;;;;29.65;13.30;;;1.70;99.90;;;;;;5040291;28;20028;-64
2023/02/16 09:47:10;;;;;;;29.10;13.43;;;1.70;99.90;;;;;;5036531;28;20037;-64
2023/02/16 09:49:45;;;;;;;24.13;14.73;;;1.70;99.90;;;;;;5029862;28;20037;-64
2023/02/16 09:52:35;;;;;;;37.05;14.10;;;1.80;99.90;;;;;;5037143;28;20044;-64
2023/02/16 09:55:10;;;;;;;18.63;10.55;;;2.00;99.90;;;;;;5044260;28;20043;-64
2023/02/16 09:58:17;;;;;;;30.05;12.30;;;2.10;99.90;;;;;;5052958;28;20082;-64
2023/02/16 10:01:06;;;;;;;25.88;11.63;;;2.00;99.90;;;;;;5063099;28;20024;-63
2023/02/16 10:04:19;;;;;;;19.60;12.20;;;2.20;99.90;;;;;;5064416;28;20033;-64
2023/02/16 10:07:03;;;;;;;22.83;9.93;;;2.50;99.90;;;;;;5030132;28;20188;-64
2023/02/16 10:09:31;;;;;;;28.10;14.82;;;2.80;99.90;;;;;;5047744;28;20036;-64
2023/02/16 10:12:04;;;;;;;32.35;14.40;;;3.20;99.90;;;;;;5047886;28;20039;-64
2023/02/16 10:14:51;;;;;;;35.58;14.55;;;3.60;99.90;;;;;;5046567;28;20028;-64
2023/02/16 10:17:36;;;;;;;32.90;13.93;;;4.00;99.90;;;;;;5067113;28;20032;-64
2023/02/16 10:20:10;;;;;;;33.80;11.80;;;4.30;99.90;;;;;;5033221;28;20040;-64
2023/02/16 10:23:06;;;;;;;31.15;14.40;;;5.00;99.90;;;;;;5032594;28;20519;-64
2023/02/16 10:26:09;;;;;;;26.40;11.55;;;5.30;99.90;;;;;;5038578;23;20099;-64
2023/02/16 10:29:19;;;;;;;23.05;11.55;;;5.50;99.90;;;;;;5010382;28;20026;-64
2023/02/16 10:32:02;;;;;;;38.15;13.57;;;5.90;99.90;;;;;;4969230;28;20038;-64
2023/02/16 10:34:45;;;;;;;30.40;13.98;;;5.70;99.90;;;;;;4993561;28;20029;-64
2023/02/16 10:37:33;;;;;;;25.13;11.57;;;6.50;99.90;;;;;;4980973;28;20146;-64
2023/02/16 10:40:12;;;;;;;32.15;13.82;;;7.10;99.90;;;;;;4973362;28;20042;-64
2023/02/16 10:43:01;;;;;;;54.35;15.45;;;6.80;99.90;;;;;;4989169;28;20038;-64
2023/02/16 10:45:40;;;;;;;33.53;15.52;;;7.30;99.90;;;;;;4972435;28;20035;-64
2023/02/16 10:48:09;;;;;;;34.53;14.63;;;7.70;99.90;;;;;;4974977;28;20105;-64
2023/02/16 10:50:48;;;;;;;29.40;13.15;;;8.30;99.90;;;;;;4986184;28;20094;-64
2023/02/16 10:53:30;;;;;;;22.98;11.98;;;8.50;99.90;;;;;;4985466;28;20352;-64
2023/02/16 10:55:57;;;;;;;35.08;12.43;;;8.30;99.90;;;;;;4987595;28;20390;-65
2023/02/16 10:58:42;;;;;;;35.20;13.45;;;8.70;99.90;;;;;;4984611;28;20034;-64
2023/02/16 11:01:38;;;;;;;19.73;9.40;;;8.90;99.90;;;;;;4974610;28;20800;-65
2023/02/16 11:04:05;;;;;;;26.35;10.15;;;9.00;99.90;;;;;;4986307;28;20113;-65
2023/02/16 11:06:31;;;;;;;22.48;8.65;;;7.80;99.90;;;;;;4985576;28;20030;-65
2023/02/16 11:09:03;;;;;;;19.80;9.38;;;7.60;99.90;;;;;;4962211;28;20042;-65
2023/02/16 11:11:37;;;;;;;16.35;9.07;;;8.30;99.90;;;;;;4966604;28;20042;-65
2023/02/16 11:14:28;;;;;;;15.85;7.97;;;9.30;99.90;;;;;;4961707;28;20487;-65
2023/02/16 11:17:13;;;;;;;18.52;9.88;;;9.30;99.90;;;;;;4984575;28;20038;-64
2023/02/16 11:20:13;;;;;;;17.48;8.30;;;8.60;99.90;;;;;;4956799;28;20045;-65
2023/02/16 11:22:40;;;;;;;18.48;8.63;;;8.70;99.90;;;;;;4967766;28;20050;-65
2023/02/16 11:25:20;;;;;;;25.35;9.88;;;8.80;99.90;;;;;;4970718;28;20037;-65
2023/02/16 11:28:04;;;;;;;15.85;7.32;;;8.60;99.90;;;;;;4988244;28;20390;-64
2023/02/16 11:30:41;;;;;;;20.00;9.02;;;8.90;99.90;;;;;;4956310;28;20490;-65
2023/02/16 11:33:26;;;;;;;23.65;9.32;;;9.40;99.90;;;;;;4969108;28;20019;-65
2023/02/16 11:35:53;;;;;;;15.85;7.75;;;9.80;99.90;;;;;;4959152;28;20041;-65
2023/02/16 11:38:30;;;;;;;15.50;8.00;;;10.70;99.90;;;;;;4966416;28;20100;-65
2023/02/16 11:40:58;;;;;;;17.80;7.82;;;10.50;99.90;;;;;;4976808;28;20042;-65
2023/02/16 11:43:28;;;;;;;25.58;8.93;;;9.80;99.90;;;;;;4966207;28;20026;-64
2023/02/16 11:46:17;;;;;;;19.63;8.25;;;9.70;99.90;;;;;;4959662;28;20034;-64
2023/02/16 11:48:44;;;;;;;18.98;8.05;;;9.70;99.90;;;;;;4990436;28;20034;-64
2023/02/16 11:51:14;;;;;;;19.35;8.38;;;9.20;99.90;;;;;;4973539;28;20023;-64
2023/02/16 11:53:43;;;;;;;21.05;9.23;;;9.10;99.90;;;;;;4966415;28;20041;-64
2023/02/16 11:56:28;;;;;;;17.25;7.28;;;9.40;99.90;;;;;;4990064;28;20117;-64
2023/02/16 11:59:23;;;;;;;17.48;8.77;;;9.50;99.90;;;;;;4963348;28;20034;-64
2023/02/16 12:02:08;;;;;;;20.67;7.80;;;9.90;99.90;;;;;;4983441;28;20125;-64
2023/02/16 12:04:51;;;;;;;25.75;9.02;;;9.90;99.90;;;;;;4956477;28;20035;-64
2023/02/16 12:07:29;;;;;;;21.10;7.82;;;9.70;99.90;;;;;;4979793;28;20113;-64
2023/02/16 12:10:28;;;;;;;21.67;9.23;;;9.80;99.90;;;;;;4971992;28;20039;-64
2023/02/16 12:13:16;;;;;;;18.17;8.38;;;9.90;99.90;;;;;;4967089;28;20069;-64
2023/02/16 12:15:57;;;;;;;14.48;6.85;;;10.20;99.90;;;;;;4989728;28;20104;-65
2023/02/16 12:18:41;;;;;;;17.40;6.75;;;10.70;99.90;;;;;;4983121;28;20034;-64
2023/02/16 12:21:36;;;;;;;23.55;8.35;;;11.70;99.90;;;;;;4966712;28;20041;-65
2023/02/16 12:24:29;;;;;;;17.88;8.05;;;11.70;99.90;;;;;;4985163;28;20425;-63
2023/02/16 12:27:00;;;;;;;22.88;7.30;;;12.10;99.90;;;;;;4984074;28;20034;-64
2023/02/16 12:29:48;;;;;;;;;;;12.40;99.90;;;;;;4958246;28;20034;-64
2023/02/16 12:32:54;;;;;;;17.98;7.47;;;11.50;99.90;;;;;;4985470;28;20004;-64
2023/02/16 12:36:00;;;;;;;18.13;8.82;;;11.20;99.90;;;;;;4971418;28;20041;-65
2023/02/16 12:39:11;;;;;;;21.08;9.05;;;10.60;99.90;;;;;;4979558;28;20075;-62
2023/02/16 12:41:45;;;;;;;25.13;8.68;;;10.70;99.90;;;;;;4985464;28;20109;-64
2023/02/16 12:44:40;;;;;;;14.23;6.95;;;10.70;99.90;;;;;;4993573;28;20393;-64
2023/02/16 12:47:14;;;;;;;15.15;5.50;;;11.00;99.90;;;;;;4990782;28;20041;-64
2023/02/16 12:49:54;;;;;;;17.02;7.72;;;11.20;99.90;;;;;;4976066;28;20105;-65
2023/02/16 12:52:37;;;;;;;14.43;7.75;;;11.60;99.90;;;;;;4989730;28;20080;-65
2023/02/16 12:55:39;;;;;;;15.73;6.85;;;11.90;99.90;;;;;;4977877;28;20030;-62
2023/02/16 12:58:30;;;;;;;19.67;7.47;;;11.80;99.90;;;;;;4983504;28;20027;-64
2023/02/16 13:01:10;;;;;;;16.88;7.03;;;11.60;99.90;;;;;;4979943;28;20130;-63
2023/02/16 13:03:46;;;;;;;14.05;7.05;;;11.30;99.90;;;;;;4978399;28;20030;-63
2023/02/16 13:06:49;;;;;;;20.15;6.90;;;11.60;99.90;;;;;;4987926;28;20539;-63
2023/02/16 13:09:51;;;;;;;29.95;8.02;;;11.70;99.90;;;;;;4973811;28;20069;-63
2023/02/16 13:12:45;;;;;;;14.40;6.70;;;12.10;99.90;;;;;;4991800;28;20039;-64
2023/02/16 13:15:42;;;;;;;13.00;6.50;;;12.50;99.90;;;;;;4973753;28;20039;-63
2023/02/16 13:18:35;;;;;;;24.55;8.15;;;12.60;99.90;;;;;;4971637;28;20034;-64
2023/02/16 13:21:26;;;;;;;14.10;6.10;;;12.20;99.90;;;;;;4968863;28;20084;-64
2023/02/16 13:24:23;;;;;;;13.82;5.57;;;12.40;99.90;;;;;;4972016;28;20030;-64
2023/02/16 13:27:17;;;;;;;18.90;6.65;;;12.40;99.90;;;;;;4987150;28;20039;-65
2023/02/16 13:29:51;;;;;;;14.75;6.10;;;12.30;99.90;;;;;;4975452;28;20077;-64
2023/02/16 13:32:55;;;;;;;15.38;6.60;;;12.10;99.90;;;;;;4989675;28;20441;-64
2023/02/16 13:35:33;;;;;;;15.48;6.43;;;12.20;99.90;;;;;;4934061;28;20101;-64
2023/02/16 13:38:04;;;;;;;14.38;5.55;;;12.00;99.90;;;;;;4982627;28;20058;-64
2023/02/16 13:40:47;;;;;;;12.40;5.80;;;12.20;99.90;;;;;;4975647;28;20030;-64
2023/02/16 13:43:33;;;;;;;13.25;4.78;;;12.20;99.90;;;;;;4969931;28;20259;-64
2023/02/16 13:46:12;;;;;;;11.55;4.25;;;12.30;99.90;;;;;;4963179;28;20113;-64
2023/02/16 13:48:47;;;;;;;9.25;4.72;;;12.40;99.90;;;;;;4985159;28;20034;-65
2023/02/16 13:51:21;;;;;;;11.65;4.97;;;12.40;99.90;;;;;;4970527;28;20037;-64
2023/02/16 13:54:07;;;;;;;8.60;4.57;;;12.40;99.90;;;;;;4968976;28;20657;-64
2023/02/16 13:56:36;;;;;;;10.27;4.50;;;12.40;99.90;;;;;;4974428;28;20030;-64
2023/02/16 13:59:19;;;;;;;8.35;4.00;;;12.60;99.90;;;;;;4979998;28;20545;-64
2023/02/16 14:01:53;;;;;;;12.27;3.95;;;12.70;99.90;;;;;;4987156;28;20076;-64
2023/02/16 14:04:21;;;;;;;15.57;4.68;;;13.00;99.90;;;;;;4961036;28;20038;-64